Time;durP1;ratioP1;P1;durP2;ratioP2;P2;SDS_P1;SDS_P2;PMS_P1;PMS_P2;Temp;Humidity;BMP_temperature;BMP_pressure;BME280_temperature;BME280_humidity;BME280_pressure;Samples;Min_cycle;Max_cycle;Signal;HPM_P1;HPM_P2
2021/11/29 00:02:13;;;;;;;;;;;5.70;99.90;;;;;;5135754;27;20019;-77
2021/11/29 00:04:39;;;;;;;7.25;5.47;;;5.70;99.90;;;;;;5133602;27;19911;-77
2021/11/29 00:07:04;;;;;;;;;;;5.60;99.90;;;;;;5133408;27;20047;-78
2021/11/29 00:09:30;;;;;;;7.88;5.97;;;5.60;99.90;;;;;;5133991;27;19939;-78
2021/11/29 00:11:56;;;;;;;;;;;5.50;99.90;;;;;;5135567;27;20027;-77
2021/11/29 00:14:21;;;;;;;7.45;6.30;;;5.50;99.90;;;;;;5133178;27;20427;-77
2021/11/29 00:16:47;;;;;;;;;;;5.50;99.90;;;;;;5133674;27;20490;-78
2021/11/29 00:19:12;;;;;;;7.88;5.75;;;5.40;99.90;;;;;;5132756;27;19903;-77
2021/11/29 00:21:38;;;;;;;;;;;5.40;99.90;;;;;;5135038;27;20030;-78
2021/11/29 00:24:04;;;;;;;8.10;6.35;;;5.40;99.90;;;;;;5134418;27;19911;-77
2021/11/29 00:26:30;;;;;;;7.88;5.80;;;5.40;99.90;;;;;;5132520;27;20047;-77
2021/11/29 00:28:56;;;;;;;;;;;5.50;99.90;;;;;;5135200;27;20023;-77
2021/11/29 00:31:22;;;;;;;5.90;4.72;;;5.50;99.90;;;;;;5132939;27;20270;-77
2021/11/29 00:33:48;;;;;;;;;;;5.50;99.90;;;;;;5131784;27;20051;-78
2021/11/29 00:36:15;;;;;;;5.75;4.25;;;5.50;99.90;;;;;;5131831;27;19953;-78
2021/11/29 00:38:42;;;;;;;7.68;4.60;;;5.40;99.90;;;;;;5133433;27;20102;-77
2021/11/29 00:41:07;;;;;;;5.10;4.40;;;5.40;99.90;;;;;;5132317;27;20041;-78
2021/11/29 00:43:33;;;;;;;;;;;5.30;99.90;;;;;;5132121;27;20027;-78
2021/11/29 00:45:58;;;;;;;5.25;4.57;;;5.30;99.90;;;;;;5132189;27;19915;-78
2021/11/29 00:48:24;;;;;;;;;;;5.20;99.90;;;;;;5132356;27;20023;-77
2021/11/29 00:50:50;;;;;;;7.30;5.55;;;5.20;99.90;;;;;;5133470;27;19933;-78
2021/11/29 00:53:15;;;;;;;;;;;5.20;99.90;;;;;;5131570;27;20048;-78
2021/11/29 00:55:41;;;;;;;9.45;5.72;;;5.10;99.90;;;;;;5132511;27;20554;-79
2021/11/29 00:58:07;;;;;;;;;;;5.10;99.90;;;;;;5132769;27;20084;-79
2021/11/29 01:00:35;;;;;;;8.50;6.25;;;5.10;99.90;;;;;;5132258;27;20336;-78
2021/11/29 01:03:01;;;;;;;7.20;5.97;;;5.00;99.90;;;;;;5133900;27;20038;-77
2021/11/29 01:05:27;;;;;;;11.00;6.50;;;5.00;99.90;;;;;;5132853;27;20050;-80
2021/11/29 01:07:53;;;;;;;;;;;5.00;99.90;;;;;;5138184;27;20023;-79
2021/11/29 01:10:19;;;;;;;8.15;6.40;;;5.00;99.90;;;;;;5137046;27;20416;-78
2021/11/29 01:12:46;;;;;;;8.57;6.57;;;5.00;99.90;;;;;;5132767;27;20027;-78
2021/11/29 01:15:16;;;;;;;10.40;7.40;;;4.90;99.90;;;;;;5136883;27;20647;-79
2021/11/29 01:17:42;;;;;;;9.07;7.65;;;4.90;99.90;;;;;;5137368;27;20549;-79
2021/11/29 01:20:08;;;;;;;;;;;4.90;99.90;;;;;;5145535;27;20052;-79
2021/11/29 01:22:35;;;;;;;10.27;8.32;;;4.90;99.90;;;;;;5141809;27;19907;-79
2021/11/29 01:25:01;;;;;;;11.98;8.85;;;4.90;99.90;;;;;;5133091;27;20031;-79
2021/11/29 01:27:27;;;;;;;;;;;4.90;99.90;;;;;;5132723;27;20035;-78
2021/11/29 01:29:52;;;;;;;13.75;8.68;;;4.80;99.90;;;;;;5132581;27;19907;-79
2021/11/29 01:32:18;;;;;;;;;;;4.80;99.90;;;;;;5136237;27;20023;-78
2021/11/29 01:34:44;;;;;;;12.90;10.43;;;4.80;99.90;;;;;;5130077;27;20022;-78
2021/11/29 01:37:10;;;;;;;12.98;9.85;;;4.70;99.90;;;;;;5131599;27;20426;-77
2021/11/29 01:39:35;;;;;;;;;;;4.70;99.90;;;;;;5129528;27;20096;-78
2021/11/29 01:42:01;;;;;;;13.63;9.93;;;4.60;99.90;;;;;;5131032;27;19952;-78
2021/11/29 01:44:27;;;;;;;;;;;4.60;99.90;;;;;;5130903;27;20030;-78
2021/11/29 01:46:52;;;;;;;15.13;10.45;;;4.60;99.90;;;;;;5130854;27;19961;-78
2021/11/29 01:49:18;;;;;;;11.60;9.52;;;4.60;99.90;;;;;;5131044;27;20029;-77
2021/11/29 01:51:44;;;;;;;;;;;4.60;99.90;;;;;;5136032;27;20064;-81
2021/11/29 01:54:10;;;;;;;11.00;8.23;;;4.50;99.90;;;;;;5138716;27;19913;-78
2021/11/29 01:56:36;;;;;;;;;;;4.50;99.90;;;;;;5132870;27;20459;-78
2021/11/29 01:59:03;;;;;;;10.85;8.13;;;4.40;99.90;;;;;;5131482;27;19903;-78
2021/11/29 02:01:29;;;;;;;11.15;8.48;;;4.40;99.90;;;;;;5135705;27;20700;-78
2021/11/29 02:03:57;;;;;;;;;;;4.30;99.90;;;;;;5141752;27;20054;-79
2021/11/29 02:06:27;;;;;;;14.07;8.48;;;4.40;99.90;;;;;;5130955;27;20332;-78
2021/11/29 02:08:54;;;;;;;9.40;7.32;;;4.30;99.90;;;;;;5131891;27;20019;-78
2021/11/29 02:11:21;;;;;;;9.95;7.88;;;4.30;99.90;;;;;;5128206;27;20023;-79
2021/11/29 02:13:47;;;;;;;9.80;7.45;;;4.30;99.90;;;;;;5128301;27;20027;-78
2021/11/29 02:16:13;;;;;;;10.10;7.63;;;4.30;99.90;;;;;;5128876;27;20788;-78
2021/11/29 02:18:40;;;;;;;;;;;4.30;99.90;;;;;;5130268;27;20537;-78
2021/11/29 02:21:09;;;;;;;11.98;8.45;;;4.30;99.90;;;;;;5128608;27;20508;-77
2021/11/29 02:23:45;;;;;;;12.13;8.68;;;4.30;99.90;;;;;;5128963;27;20511;-78
2021/11/29 02:26:12;;;;;;;13.65;9.93;;;4.20;99.90;;;;;;5130769;27;20035;-78
2021/11/29 02:28:40;;;;;;;14.98;10.70;;;4.20;99.90;;;;;;5129942;27;20043;-77
2021/11/29 02:31:14;;;;;;;15.13;10.98;;;4.20;99.90;;;;;;5129201;27;20061;-78
2021/11/29 02:33:40;;;;;;;17.67;11.50;;;4.10;99.90;;;;;;5138043;27;20101;-78
2021/11/29 02:36:05;;;;;;;;;;;4.10;99.90;;;;;;5153252;27;20521;-79
2021/11/29 02:38:31;;;;;;;18.45;12.27;;;4.00;99.90;;;;;;5152974;27;19903;-78
2021/11/29 02:40:57;;;;;;;;;;;4.00;99.90;;;;;;5153003;27;20428;-79
2021/11/29 02:43:24;;;;;;;20.52;13.75;;;4.00;99.90;;;;;;5152064;27;19914;-79
2021/11/29 02:45:50;;;;;;;22.08;14.15;;;3.90;99.90;;;;;;5154359;27;20061;-78
2021/11/29 02:48:15;;;;;;;;;;;3.80;99.90;;;;;;5155937;27;20499;-79
2021/11/29 02:50:41;;;;;;;22.88;14.10;;;3.80;99.90;;;;;;5169050;27;19903;-79
2021/11/29 02:53:08;;;;;;;;;;;3.90;99.90;;;;;;5150051;27;20018;-78
2021/11/29 02:55:37;;;;;;;19.15;12.80;;;3.80;99.90;;;;;;5151208;27;19930;-78
2021/11/29 02:58:04;;;;;;;16.80;11.80;;;3.80;99.90;;;;;;5151368;27;20162;-78
2021/11/29 03:00:29;;;;;;;20.52;13.88;;;3.80;99.90;;;;;;5148321;27;20405;-76
2021/11/29 03:03:03;;;;;;;;;;;3.80;99.90;;;;;;5150000;27;20571;-77
2021/11/29 03:05:29;;;;;;;18.40;12.40;;;3.80;99.90;;;;;;5151076;27;20302;-77
2021/11/29 03:07:54;;;;;;;;;;;3.70;99.90;;;;;;5151386;27;20109;-78
2021/11/29 03:10:20;;;;;;;20.95;13.77;;;3.70;99.90;;;;;;5150578;27;19903;-79
2021/11/29 03:12:45;;;;;;;;;;;3.70;99.90;;;;;;5150593;27;20031;-78
2021/11/29 03:15:11;;;;;;;22.80;13.63;;;3.70;99.90;;;;;;5149362;27;20002;-78
2021/11/29 03:17:36;;;;;;;;;;;3.70;99.90;;;;;;5150999;27;20045;-78
2021/11/29 03:20:03;;;;;;;21.90;12.75;;;3.70;99.90;;;;;;5150462;27;20379;-78
2021/11/29 03:22:29;;;;;;;21.00;13.68;;;3.70;99.90;;;;;;5152965;27;20030;-78
2021/11/29 03:24:54;;;;;;;;;;;3.70;99.90;;;;;;5151768;27;20019;-80
2021/11/29 03:27:20;;;;;;;23.77;13.35;;;3.80;99.90;;;;;;5141779;27;20261;-78
2021/11/29 03:29:48;;;;;;;;;;;3.60;99.90;;;;;;5130916;28;20023;-79
2021/11/29 03:32:13;;;;;;;19.90;13.05;;;3.60;99.90;;;;;;5131109;27;19908;-79
2021/11/29 03:34:39;;;;;;;;;;;3.60;99.90;;;;;;5130330;28;20549;-78
2021/11/29 03:37:05;;;;;;;19.88;13.57;;;3.60;99.90;;;;;;5131499;28;19929;-80
2021/11/29 03:39:30;;;;;;;;;;;3.60;99.90;;;;;;5133644;28;20147;-80
2021/11/29 03:41:59;;;;;;;18.85;12.15;;;3.60;99.90;;;;;;5133353;27;20383;-79
2021/11/29 03:44:25;;;;;;;17.75;11.90;;;3.60;99.90;;;;;;5132973;28;20038;-79
2021/11/29 03:46:52;;;;;;;;;;;3.70;99.90;;;;;;5134874;27;20434;-79
2021/11/29 03:49:19;;;;;;;14.90;10.57;;;3.60;99.90;;;;;;5134242;27;19953;-79
2021/11/29 03:51:45;;;;;;;16.08;11.02;;;3.60;99.90;;;;;;5133399;28;20444;-79
2021/11/29 03:54:11;;;;;;;14.63;11.20;;;3.60;99.90;;;;;;5136459;27;20503;-80
2021/11/29 03:56:36;;;;;;;;;;;3.50;99.90;;;;;;5140422;27;20038;-79
2021/11/29 03:59:03;;;;;;;16.27;12.40;;;3.50;99.90;;;;;;5139087;27;19907;-79
2021/11/29 04:01:29;;;;;;;17.08;11.90;;;3.50;99.90;;;;;;5137948;27;20023;-79
2021/11/29 04:03:55;;;;;;;;;;;3.40;99.90;;;;;;5140091;27;20029;-79
2021/11/29 04:06:21;;;;;;;19.02;12.05;;;3.50;99.90;;;;;;5138939;27;19922;-80
2021/11/29 04:08:46;;;;;;;;;;;3.40;99.90;;;;;;5140795;27;20050;-79
2021/11/29 04:11:12;;;;;;;16.60;11.90;;;3.30;99.90;;;;;;5141035;27;20295;-79
2021/11/29 04:13:37;;;;;;;;;;;3.30;99.90;;;;;;5139254;27;20024;-80
2021/11/29 04:16:04;;;;;;;19.23;13.00;;;3.30;99.90;;;;;;5140295;27;20588;-80
2021/11/29 04:18:29;;;;;;;;;;;3.30;99.90;;;;;;5143630;27;20031;-80
2021/11/29 04:20:56;;;;;;;19.95;13.73;;;3.20;99.90;;;;;;5149053;27;19908;-79
2021/11/29 04:23:22;;;;;;;21.95;13.60;;;3.20;99.90;;;;;;5137501;27;20026;-79
2021/11/29 04:25:55;;;;;;;;;;;3.20;99.90;;;;;;5138251;27;20035;-79
2021/11/29 04:28:21;;;;;;;21.50;14.75;;;3.10;99.90;;;;;;5156350;27;19907;-80
2021/11/29 04:30:47;;;;;;;;;;;3.10;99.90;;;;;;5157719;27;20502;-79
2021/11/29 04:33:13;;;;;;;23.95;15.57;;;3.00;99.90;;;;;;5157010;27;19903;-79
2021/11/29 04:35:38;;;;;;;;;;;3.00;99.90;;;;;;5157446;27;20042;-79
2021/11/29 04:38:04;;;;;;;24.80;15.15;;;3.00;99.90;;;;;;5157976;27;19907;-78
2021/11/29 04:40:30;;;;;;;;;;;2.90;99.90;;;;;;5161873;27;20018;-80
2021/11/29 04:42:55;;;;;;;;;;;2.90;99.90;;;;;;5167532;27;20679;-79
2021/11/29 04:45:21;;;;;;;;;;;3.00;99.90;;;;;;5163776;27;19919;-80
2021/11/29 04:47:47;;;;;;;;;;;3.00;99.90;;;;;;5156231;27;19914;-79
2021/11/29 04:50:12;;;;;;;;;;;2.90;99.90;;;;;;5157213;27;19942;-79
2021/11/29 04:52:38;;;;;;;;;;;3.00;99.90;;;;;;5157250;27;19926;-79
2021/11/29 04:55:04;;;;;;;;;;;3.00;99.90;;;;;;5156027;27;19968;-79
2021/11/29 04:57:29;;;;;;;;;;;3.00;99.90;;;;;;5157243;27;20566;-79
2021/11/29 04:59:55;;;;;;;;;;;2.90;99.90;;;;;;5157683;27;19907;-80
2021/11/29 05:02:21;;;;;;;;;;;2.90;99.90;;;;;;5157967;27;19984;-79
2021/11/29 05:04:47;;;;;;;;;;;2.80;99.90;;;;;;5144298;27;19914;-80
2021/11/29 05:07:15;;;;;;;;;;;2.90;99.90;;;;;;5135560;27;19935;-79
2021/11/29 05:09:42;;;;;;;;;;;2.90;99.90;;;;;;5136833;27;19903;-79
2021/11/29 05:12:14;;;;;;;;;;;2.80;99.90;;;;;;5135121;27;19907;-79
2021/11/29 05:14:39;;;;;;;;;;;2.80;99.90;;;;;;5124667;27;20387;-80
2021/11/29 05:17:05;;;;;;;;;;;2.80;99.90;;;;;;5115211;28;19974;-79
2021/11/29 05:19:31;;;;;;;;;;;2.90;99.90;;;;;;5114832;28;20345;-80
2021/11/29 05:21:57;;;;;;;;;;;2.80;99.90;;;;;;5117441;28;19910;-79
2021/11/29 05:24:22;;;;;;;;;;;2.80;99.90;;;;;;5115172;28;19911;-79
2021/11/29 05:26:48;;;;;;;;;;;2.80;99.90;;;;;;5114314;28;20300;-79
2021/11/29 05:29:15;;;;;;;;;;;2.80;99.90;;;;;;5115922;28;19922;-79
2021/11/29 05:31:41;;;;;;;;;;;2.80;99.90;;;;;;5115844;28;19914;-78
2021/11/29 05:34:07;;;;;;;;;;;2.80;99.90;;;;;;5116183;28;19968;-79
2021/11/29 05:36:33;;;;;;;;;;;2.80;99.90;;;;;;5115758;28;20383;-80
2021/11/29 05:39:01;;;;;;;;;;;2.80;99.90;;;;;;5117028;28;19915;-81
2021/11/29 05:41:27;;;;;;;;;;;2.80;99.90;;;;;;5117044;28;19938;-80
2021/11/29 05:43:52;;;;;;;;;;;2.80;99.90;;;;;;5115489;28;19903;-80
2021/11/29 05:46:22;;;;;;;;;;;2.90;99.90;;;;;;5152425;27;19919;-79
2021/11/29 05:48:48;;;;;;;;;;;2.80;99.90;;;;;;5171942;27;20214;-79
2021/11/29 05:51:14;;;;;;;;;;;2.80;99.90;;;;;;5157301;27;19915;-79
2021/11/29 05:53:39;;;;;;;;;;;2.80;99.90;;;;;;5155235;27;20014;-79
2021/11/29 05:56:06;;;;;;;;;;;2.80;99.90;;;;;;5157564;27;19914;-80
2021/11/29 05:58:32;;;;;;;;;;;2.80;99.90;;;;;;5156170;27;19907;-79
2021/11/29 06:00:57;;;;;;;;;;;2.70;99.90;;;;;;5156000;27;20022;-79
2021/11/29 06:03:23;;;;;;;;;;;2.80;99.90;;;;;;5154961;27;20355;-79
2021/11/29 06:05:49;;;;;;;;;;;2.80;99.90;;;;;;5157020;27;19951;-79
2021/11/29 06:08:15;;;;;;;;;;;2.70;99.90;;;;;;5156139;27;19914;-79
2021/11/29 06:10:40;;;;;;;;;;;2.80;99.90;;;;;;5157533;27;19903;-78
2021/11/29 06:13:06;;;;;;;;;;;2.80;99.90;;;;;;5157617;27;19902;-79
2021/11/29 06:15:31;;;;;;;;;;;2.80;99.90;;;;;;5154866;27;19903;-79
2021/11/29 06:17:57;;;;;;;;;;;2.80;99.90;;;;;;5158796;27;19960;-80
2021/11/29 06:20:22;;;;;;;;;;;2.80;99.90;;;;;;5157906;27;19903;-79
2021/11/29 06:22:52;;;;;;;;;;;2.80;99.90;;;;;;5157305;27;19964;-79
2021/11/29 06:25:18;;;;;;;;;;;2.90;99.90;;;;;;5155384;27;20370;-79
2021/11/29 06:27:44;;;;;;;;;;;2.80;99.90;;;;;;5156677;27;19914;-80
2021/11/29 06:30:10;;;;;;;;;;;2.80;99.90;;;;;;5155895;27;19903;-79
2021/11/29 06:32:36;;;;;;;;;;;2.90;99.90;;;;;;5157492;27;19903;-78
2021/11/29 06:35:01;;;;;;;;;;;3.00;99.90;;;;;;5156509;27;19914;-80
2021/11/29 06:37:27;;;;;;;;;;;3.00;99.90;;;;;;5158049;27;20263;-80
2021/11/29 06:39:54;;;;;;;;;;;3.00;99.90;;;;;;5157844;27;19907;-78
2021/11/29 06:42:19;;;;;;;;;;;3.00;99.90;;;;;;5157260;27;20302;-80
2021/11/29 06:44:45;;;;;;;;;;;3.10;99.90;;;;;;5157650;27;20398;-79
2021/11/29 06:47:10;;;;;;;;;;;3.10;99.90;;;;;;5149212;27;19922;-80
2021/11/29 06:49:36;;;;;;;;;;;3.10;99.90;;;;;;5136381;27;19907;-79
2021/11/29 06:52:04;;;;;;;;;;;3.20;99.90;;;;;;5137950;27;19907;-79
2021/11/29 06:54:32;;;;;;;;;;;3.20;99.90;;;;;;5136023;28;19908;-80
2021/11/29 06:56:58;;;;;;;;;;;3.30;99.90;;;;;;5136267;28;20314;-79
2021/11/29 06:59:23;;;;;;;;;;;3.40;99.90;;;;;;5136729;27;19914;-80
2021/11/29 07:01:49;;;;;;;;;;;3.30;99.90;;;;;;5136838;27;19917;-80
2021/11/29 07:04:18;;;;;;;;;;;3.40;99.90;;;;;;5137344;27;19956;-79
2021/11/29 07:06:44;;;;;;;;;;;3.50;99.90;;;;;;5137692;27;19911;-80
2021/11/29 07:09:09;;;;;;;;;;;3.60;99.90;;;;;;5139031;28;19914;-81
2021/11/29 07:11:35;;;;;;;;;;;3.70;99.90;;;;;;5138691;27;19907;-79
2021/11/29 07:14:01;;;;;;;;;;;3.70;99.90;;;;;;5138461;27;19907;-80
2021/11/29 07:16:27;;;;;;;;;;;3.90;99.90;;;;;;5143620;27;19946;-79
2021/11/29 07:18:52;;;;;;;;;;;3.90;99.90;;;;;;5144876;28;19903;-79
2021/11/29 07:21:18;;;;;;;;;;;4.00;99.90;;;;;;5147582;27;19911;-80
2021/11/29 07:23:43;;;;;;;;;;;4.10;99.90;;;;;;5139807;28;19933;-79
2021/11/29 07:26:09;;;;;;;;;;;4.30;99.90;;;;;;5133771;28;20383;-80
2021/11/29 07:28:34;;;;;;;;;;;4.60;99.90;;;;;;5133859;27;19910;-79
2021/11/29 07:31:00;;;;;;;;;;;4.80;99.90;;;;;;5137394;27;19907;-79
2021/11/29 07:33:25;;;;;;;;;;;4.90;99.90;;;;;;5137259;27;19904;-79
2021/11/29 07:35:51;;;;;;;;;;;5.10;99.90;;;;;;5136030;27;19904;-80
2021/11/29 07:38:16;;;;;;;;;;;5.00;99.90;;;;;;5138042;27;19903;-80
2021/11/29 07:40:42;;;;;;;;;;;5.00;99.90;;;;;;5135293;27;20088;-80
2021/11/29 07:43:08;;;;;;;;;;;4.90;99.90;;;;;;5133628;27;20044;-79
2021/11/29 07:45:35;;;;;;;;;;;4.90;99.90;;;;;;5135124;27;20013;-80
2021/11/29 07:48:01;;;;;;;;;;;4.80;99.90;;;;;;5134242;27;19910;-79
2021/11/29 07:50:27;;;;;;;;;;;4.90;99.90;;;;;;5134298;27;19986;-80
2021/11/29 07:52:52;;;;;;;;;;;4.60;99.90;;;;;;5134166;27;19907;-80
2021/11/29 07:55:23;;;;;;;;;;;4.60;99.90;;;;;;5134367;27;19910;-79
2021/11/29 07:57:48;;;;;;;;;;;4.50;99.90;;;;;;5134855;27;20379;-79
2021/11/29 08:00:20;;;;;;;;;;;4.50;99.90;;;;;;5133264;27;19951;-79
2021/11/29 08:02:47;;;;;;;;;;;4.50;99.90;;;;;;5135212;27;19911;-80
2021/11/29 08:05:12;;;;;;;;;;;4.70;99.90;;;;;;5135849;27;20287;-80
2021/11/29 08:07:38;;;;;;;;;;;5.10;99.90;;;;;;5136478;27;19903;-79
2021/11/29 08:10:03;;;;;;;;;;;5.60;99.90;;;;;;5138306;27;19911;-77
2021/11/29 08:12:29;;;;;;;;;;;5.90;99.90;;;;;;5137483;27;19903;-78
2021/11/29 08:14:55;;;;;;;;;;;5.90;99.90;;;;;;5136965;27;20291;-77
2021/11/29 08:17:21;;;;;;;;;;;5.80;99.90;;;;;;5137922;27;19904;-77
2021/11/29 08:19:46;;;;;;;;;;;5.80;99.90;;;;;;5138323;27;19904;-77
2021/11/29 08:22:13;;;;;;;;;;;5.70;99.90;;;;;;5142519;27;20349;-77
2021/11/29 08:24:39;;;;;;;;;;;5.80;99.90;;;;;;5139954;27;19907;-77
2021/11/29 08:27:05;;;;;;;;;;;6.10;99.90;;;;;;5140747;27;20040;-77
2021/11/29 08:29:30;;;;;;;;;;;6.20;99.90;;;;;;5141854;27;19938;-77
2021/11/29 08:31:56;;;;;;;;;;;6.30;99.90;;;;;;5147211;27;19903;-78
2021/11/29 08:34:21;;;;;;;;;;;6.40;99.90;;;;;;5141561;27;19955;-77
2021/11/29 08:36:47;;;;;;;;;;;6.40;99.90;;;;;;5137936;27;20298;-77
2021/11/29 08:39:13;;;;;;;;;;;6.50;99.90;;;;;;5136435;27;19976;-77
2021/11/29 08:41:38;;;;;;;;;;;6.60;99.90;;;;;;5138772;27;20725;-78
2021/11/29 08:44:04;;;;;;;;;;;6.60;99.90;;;;;;5141518;27;19908;-77
2021/11/29 08:46:32;;;;;;;;;;;6.60;99.90;;;;;;5139043;27;20010;-77
2021/11/29 08:48:58;;;;;;;;;;;6.80;99.90;;;;;;5139164;27;20379;-78
2021/11/29 08:51:24;;;;;;;;;;;7.00;99.90;;;;;;5138227;27;19919;-77
2021/11/29 08:53:49;;;;;;;;;;;7.00;99.90;;;;;;5138374;27;19923;-78
2021/11/29 08:56:16;;;;;;;;;;;7.10;99.90;;;;;;5137827;27;19911;-77
2021/11/29 08:58:42;;;;;;;;;;;7.20;99.90;;;;;;5137722;27;19981;-77
2021/11/29 09:01:07;;;;;;;;;;;7.30;99.90;;;;;;5137251;27;19981;-78
2021/11/29 09:03:33;;;;;;;;;;;7.30;99.90;;;;;;5137348;27;20403;-77
2021/11/29 09:05:59;;;;;;;;;;;7.20;99.90;;;;;;5137587;27;20341;-79
2021/11/29 09:08:25;;;;;;;;;;;6.90;99.90;;;;;;5139010;27;20006;-78
2021/11/29 09:10:52;;;;;;;;;;;6.60;99.90;;;;;;5138419;27;19903;-79
2021/11/29 09:13:18;;;;;;;;;;;6.50;99.90;;;;;;5137446;27;19933;-77
2021/11/29 09:15:45;;;;;;;;;;;6.20;99.90;;;;;;5137019;27;19907;-78
2021/11/29 09:18:11;;;;;;;;;;;5.90;99.90;;;;;;5136742;27;19903;-79
2021/11/29 09:20:38;;;;;;;;;;;5.70;99.90;;;;;;5138358;27;19943;-79
2021/11/29 09:23:06;;;;;;;;;;;5.50;99.90;;;;;;5138260;27;20488;-78
2021/11/29 09:25:31;;;;;;;;;;;5.50;99.90;;;;;;5136986;27;19907;-78
2021/11/29 09:27:57;;;;;;;;;;;5.30;99.90;;;;;;5137420;27;19907;-79
2021/11/29 09:30:23;;;;;;;;;;;5.30;99.90;;;;;;5136795;27;20013;-78
2021/11/29 09:32:49;;;;;;;;;;;5.20;99.90;;;;;;5137267;27;19908;-78
2021/11/29 09:35:16;;;;;;;;;;;5.20;99.90;;;;;;5136504;27;19907;-78
2021/11/29 09:37:42;;;;;;;;;;;5.20;99.90;;;;;;5137718;27;19907;-79
2021/11/29 09:40:11;;;;;;;;;;;5.10;99.90;;;;;;5137601;27;19993;-77
2021/11/29 09:42:37;;;;;;;;;;;5.10;99.90;;;;;;5138049;27;19903;-79
2021/11/29 09:45:04;;;;;;;;;;;5.20;99.90;;;;;;5139183;27;19974;-79
2021/11/29 09:47:29;;;;;;;;;;;5.40;99.90;;;;;;5140457;27;19918;-79
2021/11/29 09:49:57;;;;;;;;;;;5.50;99.90;;;;;;5141329;27;20363;-78
2021/11/29 09:52:23;;;;;;;;;;;5.70;99.90;;;;;;5140348;27;20347;-79
2021/11/29 09:54:49;;;;;;;;;;;6.00;99.90;;;;;;5138523;27;19933;-79
2021/11/29 09:57:15;;;;;;;;;;;6.10;99.90;;;;;;5140132;27;19907;-79
2021/11/29 09:59:40;;;;;;;;;;;6.20;99.90;;;;;;5148604;27;19904;-78
2021/11/29 10:02:12;;;;;;;;;;;6.20;99.90;;;;;;5145461;27;19903;-79
2021/11/29 10:04:47;;;;;;;;;;;6.20;99.90;;;;;;5142915;27;19910;-79
2021/11/29 10:07:25;;;;;;;;;;;6.20;99.90;;;;;;5160959;27;19910;-80
2021/11/29 10:09:55;;;;;;;;;;;6.20;99.90;;;;;;5161253;27;20413;-78
2021/11/29 10:12:21;;;;;;;;;;;6.40;99.90;;;;;;5161511;27;20019;-78
2021/11/29 10:15:06;;;;;;;;;;;6.40;99.90;;;;;;5164081;27;20371;-79
2021/11/29 10:17:31;;;;;;;;;;;6.50;99.90;;;;;;5157784;27;20358;-80
2021/11/29 10:19:57;;;;;;;;;;;6.70;99.90;;;;;;5159986;27;19954;-78
2021/11/29 10:22:24;;;;;;;;;;;6.60;99.90;;;;;;5160069;27;19903;-78
2021/11/29 10:24:50;;;;;;;;;;;6.60;99.90;;;;;;5159926;27;19907;-78
2021/11/29 10:27:16;;;;;;;;;;;6.50;99.90;;;;;;5158407;27;19921;-79
2021/11/29 10:29:55;;;;;;;;;;;6.40;99.90;;;;;;5158473;27;19907;-78
2021/11/29 10:32:34;;;;;;;;;;;6.30;99.90;;;;;;5159400;27;19914;-78
2021/11/29 10:35:00;;;;;;;;;;;6.10;99.90;;;;;;5158640;27;19907;-78
2021/11/29 10:37:26;;;;;;;;;;;6.00;99.90;;;;;;5158903;27;19917;-78
2021/11/29 10:39:52;;;;;;;;;;;5.90;99.90;;;;;;5158174;27;19903;-78
2021/11/29 10:42:18;;;;;;;;;;;5.90;99.90;;;;;;5156601;27;19903;-78
2021/11/29 10:44:44;;;;;;;;;;;5.90;99.90;;;;;;5158462;27;19903;-78
2021/11/29 10:47:14;;;;;;;;;;;6.00;99.90;;;;;;5157346;27;19915;-78
2021/11/29 10:49:41;;;;;;;;;;;6.10;99.90;;;;;;5159093;27;20375;-78
2021/11/29 10:52:08;;;;;;;;;;;6.20;99.90;;;;;;5157698;27;19997;-79
2021/11/29 10:54:34;;;;;;;;;;;6.40;99.90;;;;;;5157418;27;19915;-79
2021/11/29 10:57:01;;;;;;;;;;;6.50;99.90;;;;;;5157564;27;20373;-78
2021/11/29 10:59:27;;;;;;;;;;;6.50;99.90;;;;;;5156498;27;19903;-79
2021/11/29 11:01:54;;;;;;;;;;;6.60;99.90;;;;;;5160813;27;19960;-78
2021/11/29 11:04:20;;;;;;;;;;;6.40;99.90;;;;;;5163457;27;19902;-78
2021/11/29 11:06:58;;;;;;;;;;;6.30;99.90;;;;;;5161596;27;19953;-78
2021/11/29 11:09:28;;;;;;;;;;;6.30;99.90;;;;;;5161947;27;19907;-79
2021/11/29 11:11:55;;;;;;;;;;;6.30;99.90;;;;;;5161121;27;20276;-78
2021/11/29 11:14:25;;;;;;;;;;;6.20;99.90;;;;;;5158063;27;19910;-79
2021/11/29 11:16:57;;;;;;;;;;;6.20;99.90;;;;;;5162589;27;19947;-78
2021/11/29 11:19:33;;;;;;;;;;;6.30;99.90;;;;;;5164056;27;20418;-77
2021/11/29 11:22:12;;;;;;;;;;;6.40;99.90;;;;;;5162758;27;19954;-79
2021/11/29 11:24:42;;;;;;;;;;;6.50;99.90;;;;;;5163225;27;19911;-78
2021/11/29 11:27:08;;;;;;;;;;;6.70;99.90;;;;;;5158201;27;19907;-78
2021/11/29 11:29:41;;;;;;;;;;;6.90;99.90;;;;;;5163605;27;20009;-78
2021/11/29 11:32:10;;;;;;;;;;;7.00;99.90;;;;;;5160335;27;19907;-78
2021/11/29 11:34:36;;;;;;;;;;;7.10;99.90;;;;;;5163877;27;19914;-78
2021/11/29 11:37:02;;;;;;;;;;;7.20;99.90;;;;;;5164436;27;19903;-79
2021/11/29 11:39:28;;;;;;;;;;;7.30;99.90;;;;;;5163213;27;19907;-79
2021/11/29 11:41:55;;;;;;;;;;;7.30;99.90;;;;;;5161952;27;19946;-78
2021/11/29 11:44:20;;;;;;;;;;;7.30;99.90;;;;;;5164818;27;19913;-77
2021/11/29 11:46:47;;;;;;;;;;;7.40;99.90;;;;;;5163621;27;19922;-78
2021/11/29 11:49:12;;;;;;;;;;;7.30;99.90;;;;;;5163553;27;19928;-77
2021/11/29 11:51:39;;;;;;;;;;;7.40;99.90;;;;;;5159021;27;19907;-79
2021/11/29 11:54:04;;;;;;;;;;;7.40;99.90;;;;;;5159816;27;19938;-78
2021/11/29 11:56:30;;;;;;;;;;;7.40;99.90;;;;;;5159988;27;20026;-77
2021/11/29 11:58:57;;;;;;;;;;;7.30;99.90;;;;;;5162145;27;19910;-78
2021/11/29 12:01:25;;;;;;;;;;;7.20;99.90;;;;;;5160024;27;20034;-78
2021/11/29 12:03:50;;;;;;;;;;;7.10;99.90;;;;;;5160315;27;20443;-78
2021/11/29 12:06:17;;;;;;;;;;;7.00;99.90;;;;;;5158655;27;19986;-78
2021/11/29 12:08:59;;;;;;;;;;;7.00;99.90;;;;;;5158329;27;19946;-79
2021/11/29 12:11:29;;;;;;;;;;;7.00;99.90;;;;;;5160448;27;19910;-77
2021/11/29 12:14:01;;;;;;;;;;;6.90;99.90;;;;;;5158952;27;20372;-78
2021/11/29 12:16:31;;;;;;;;;;;6.90;99.90;;;;;;5159947;27;19903;-77
2021/11/29 12:18:57;;;;;;;;;;;6.90;99.90;;;;;;5159199;27;19932;-78
2021/11/29 12:21:22;;;;;;;;;;;6.80;99.90;;;;;;5159030;27;19902;-78
2021/11/29 12:23:56;;;;;;;;;;;6.80;99.90;;;;;;5158962;27;19903;-77
2021/11/29 12:26:40;;;;;;;;;;;6.90;99.90;;;;;;5159948;27;19921;-78
2021/11/29 12:29:06;;;;;;;;;;;6.90;99.90;;;;;;5159263;27;19929;-78
2021/11/29 12:31:38;;;;;;;;;;;6.90;99.90;;;;;;5156616;27;19907;-78
2021/11/29 12:34:06;;;;;;;;;;;6.90;99.90;;;;;;5139268;27;19983;-78
2021/11/29 12:36:55;;;;;;;;;;;6.80;99.90;;;;;;5140615;27;19952;-77
2021/11/29 12:39:39;;;;;;;;;;;6.80;99.90;;;;;;5126173;27;19911;-77
2021/11/29 12:42:05;;;;;;;;;;;6.70;99.90;;;;;;5138749;27;20319;-78
2021/11/29 12:44:50;;;;;;;;;;;6.70;99.90;;;;;;5137615;27;19908;-78
2021/11/29 12:47:23;;;;;;;;;;;6.70;99.90;;;;;;5136413;27;19922;-78
2021/11/29 12:49:52;;;;;;;;;;;6.70;99.90;;;;;;5134369;27;19911;-77
2021/11/29 12:52:26;;;;;;;;;;;6.70;99.90;;;;;;5134710;27;19907;-78
2021/11/29 12:54:53;;;;;;;;;;;6.80;99.90;;;;;;5136976;27;19903;-78
2021/11/29 12:57:19;;;;;;;;;;;6.80;99.90;;;;;;5135700;27;20383;-78
2021/11/29 12:59:48;;;;;;;;;;;6.80;99.90;;;;;;5135593;27;19907;-78
2021/11/29 13:02:32;;;;;;;;;;;6.70;99.90;;;;;;5136546;27;19951;-78
2021/11/29 13:04:58;;;;;;;;;;;6.60;99.90;;;;;;5134233;27;19910;-78
2021/11/29 13:07:23;;;;;;;;;;;6.50;99.90;;;;;;5137862;27;20010;-78
2021/11/29 13:09:49;;;;;;;;;;;6.50;99.90;;;;;;5137971;27;19935;-77
2021/11/29 13:12:18;;;;;;;;;;;6.40;99.90;;;;;;5139844;27;19955;-79
2021/11/29 13:14:44;;;;;;;;;;;6.30;99.90;;;;;;5133484;27;20630;-79
2021/11/29 13:17:09;;;;;;;;;;;6.30;99.90;;;;;;5136318;27;19946;-80
2021/11/29 13:19:39;;;;;;;;;;;6.20;99.90;;;;;;5133750;27;19907;-78
2021/11/29 13:22:07;;;;;;;;;;;6.20;99.90;;;;;;5134024;27;19915;-78
2021/11/29 13:24:43;;;;;;;;;;;6.10;99.90;;;;;;5135709;27;19907;-78
2021/11/29 13:27:19;;;;;;;;;;;6.10;99.90;;;;;;5133640;27;19915;-78
2021/11/29 13:29:47;;;;;;;;;;;6.00;99.90;;;;;;5114444;28;19918;-78
2021/11/29 13:32:17;;;;;;;;;;;6.00;99.90;;;;;;5113202;28;20375;-78
2021/11/29 13:34:45;;;;;;;;;;;5.90;99.90;;;;;;5114897;28;19911;-78
2021/11/29 13:37:12;;;;;;;;;;;5.90;99.90;;;;;;5115308;28;19914;-80
2021/11/29 13:39:39;;;;;;;;;;;5.90;99.90;;;;;;5114791;28;19904;-78
2021/11/29 13:42:16;;;;;;;;;;;5.80;99.90;;;;;;5096626;28;19922;-78
2021/11/29 13:44:46;;;;;;;;;;;5.80;99.90;;;;;;5113397;28;19903;-78
2021/11/29 13:47:11;;;;;;;;;;;5.70;99.90;;;;;;5113664;28;19916;-77
2021/11/29 13:49:38;;;;;;;;;;;5.70;99.90;;;;;;5113096;28;19908;-78
2021/11/29 13:52:05;;;;;;;;;;;5.80;99.90;;;;;;5113792;28;20026;-78
2021/11/29 13:54:31;;;;;;;;;;;5.70;99.90;;;;;;5113909;28;20411;-78
2021/11/29 13:56:56;;;;;;;;;;;5.70;99.90;;;;;;5113467;28;19965;-78
2021/11/29 13:59:22;;;;;;;;;;;5.60;99.90;;;;;;5112874;28;19915;-77
2021/11/29 14:01:48;;;;;;;;;;;5.50;99.90;;;;;;5113093;28;19904;-78
2021/11/29 14:04:13;;;;;;;;;;;5.50;99.90;;;;;;5113751;28;19907;-79
2021/11/29 14:06:39;;;;;;;;;;;5.50;99.90;;;;;;5112847;28;20018;-76